sensor_id;sensor_type;location;lat;lon;timestamp;pressure;altitude;pressure_sealevel;temperature;humidity
55916;BME280;41826;53.246;-6.670;2023-07-29T00:00:40;99885.75;;;14.10;100.00
55916;BME280;41826;53.246;-6.670;2023-07-29T00:03:05;99894.19;;;14.20;100.00
55916;BME280;41826;53.246;-6.670;2023-07-29T00:05:31;99884.97;;;13.95;100.00
55916;BME280;41826;53.246;-6.670;2023-07-29T00:07:56;99893.75;;;13.80;100.00
55916;BME280;41826;53.246;-6.670;2023-07-29T00:10:22;99876.38;;;13.86;100.00
55916;BME280;41826;53.246;-6.670;2023-07-29T00:12:47;99862.91;;;13.81;100.00
55916;BME280;41826;53.246;-6.670;2023-07-29T00:15:13;99868.53;;;13.93;100.00
55916;BME280;41826;53.246;-6.670;2023-07-29T00:17:38;99873.72;;;13.86;100.00
55916;BME280;41826;53.246;-6.670;2023-07-29T00:20:05;99880.16;;;13.98;100.00
55916;BME280;41826;53.246;-6.670;2023-07-29T00:22:31;99871.69;;;14.03;100.00
55916;BME280;41826;53.246;-6.670;2023-07-29T00:24:56;99881.88;;;14.06;100.00
55916;BME280;41826;53.246;-6.670;2023-07-29T00:27:23;99880.16;;;13.98;100.00
55916;BME280;41826;53.246;-6.670;2023-07-29T00:29:49;99882.13;;;14.11;100.00
55916;BME280;41826;53.246;-6.670;2023-07-29T00:32:14;99888.19;;;14.26;100.00
55916;BME280;41826;53.246;-6.670;2023-07-29T00:34:39;99906.91;;;14.31;100.00
55916;BME280;41826;53.246;-6.670;2023-07-29T00:37:05;99914.84;;;14.31;100.00
55916;BME280;41826;53.246;-6.670;2023-07-29T00:39:31;99918.78;;;14.21;100.00
55916;BME280;41826;53.246;-6.670;2023-07-29T00:41:57;99909.16;;;14.13;100.00
55916;BME280;41826;53.246;-6.670;2023-07-29T00:44:22;99904.91;;;13.97;100.00
55916;BME280;41826;53.246;-6.670;2023-07-29T00:46:50;99903.16;;;14.04;100.00
55916;BME280;41826;53.246;-6.670;2023-07-29T00:49:16;99904.41;;;14.23;100.00
55916;BME280;41826;53.246;-6.670;2023-07-29T00:51:41;99909.78;;;14.15;100.00
55916;BME280;41826;53.246;-6.670;2023-07-29T00:54:07;99914.75;;;14.25;100.00
55916;BME280;41826;53.246;-6.670;2023-07-29T00:56:32;99911.44;;;14.16;100.00
55916;BME280;41826;53.246;-6.670;2023-07-29T00:58:58;99921.88;;;14.24;100.00
55916;BME280;41826;53.246;-6.670;2023-07-29T01:01:27;99922.94;;;14.30;100.00
55916;BME280;41826;53.246;-6.670;2023-07-29T01:03:52;99918.53;;;14.16;100.00
55916;BME280;41826;53.246;-6.670;2023-07-29T01:06:41;99914.44;;;14.13;100.00
55916;BME280;41826;53.246;-6.670;2023-07-29T01:14:47;99885.44;;;13.98;100.00
55916;BME280;41826;53.246;-6.670;2023-07-29T01:17:22;99896.03;;;13.83;100.00
55916;BME280;41826;53.246;-6.670;2023-07-29T01:20:02;99886.56;;;13.74;100.00
55916;BME280;41826;53.246;-6.670;2023-07-29T01:22:34;99880.31;;;13.75;100.00
55916;BME280;41826;53.246;-6.670;2023-07-29T01:25:00;99890.19;;;13.88;100.00
55916;BME280;41826;53.246;-6.670;2023-07-29T01:27:26;99889.00;;;13.91;100.00
55916;BME280;41826;53.246;-6.670;2023-07-29T01:29:52;99886.81;;;13.79;100.00
55916;BME280;41826;53.246;-6.670;2023-07-29T01:35:36;99900.50;;;13.68;100.00
55916;BME280;41826;53.246;-6.670;2023-07-29T01:38:18;99885.31;;;13.55;100.00
55916;BME280;41826;53.246;-6.670;2023-07-29T01:40:44;99886.69;;;13.51;100.00
55916;BME280;41826;53.246;-6.670;2023-07-29T01:43:11;99879.56;;;13.52;100.00
55916;BME280;41826;53.246;-6.670;2023-07-29T01:45:37;99879.56;;;13.52;100.00
55916;BME280;41826;53.246;-6.670;2023-07-29T01:48:07;99881.22;;;13.53;100.00
55916;BME280;41826;53.246;-6.670;2023-07-29T01:50:33;99872.31;;;13.39;100.00
55916;BME280;41826;53.246;-6.670;2023-07-29T01:52:59;99865.47;;;13.15;100.00
55916;BME280;41826;53.246;-6.670;2023-07-29T01:55:24;99853.00;;;13.23;100.00
55916;BME280;41826;53.246;-6.670;2023-07-29T01:57:50;99851.91;;;13.18;100.00
55916;BME280;41826;53.246;-6.670;2023-07-29T02:00:17;99849.81;;;13.13;100.00
55916;BME280;41826;53.246;-6.670;2023-07-29T02:05:10;99846.16;;;13.37;100.00
55916;BME280;41826;53.246;-6.670;2023-07-29T02:07:36;99853.13;;;13.30;100.00
55916;BME280;41826;53.246;-6.670;2023-07-29T02:10:01;99859.06;;;13.32;100.00
55916;BME280;41826;53.246;-6.670;2023-07-29T02:12:26;99869.28;;;13.12;100.00
55916;BME280;41826;53.246;-6.670;2023-07-29T02:14:52;99864.72;;;13.06;100.00
55916;BME280;41826;53.246;-6.670;2023-07-29T02:17:17;99860.41;;;13.28;100.00
55916;BME280;41826;53.246;-6.670;2023-07-29T02:19:43;99879.03;;;13.41;100.00
55916;BME280;41826;53.246;-6.670;2023-07-29T02:22:10;99889.03;;;13.31;100.00
55916;BME280;41826;53.246;-6.670;2023-07-29T02:24:36;99893.50;;;13.31;100.00
55916;BME280;41826;53.246;-6.670;2023-07-29T02:27:01;99902.75;;;13.27;100.00
55916;BME280;41826;53.246;-6.670;2023-07-29T02:29:26;99899.97;;;13.05;100.00
55916;BME280;41826;53.246;-6.670;2023-07-29T02:31:52;99892.19;;;13.12;100.00
55916;BME280;41826;53.246;-6.670;2023-07-29T02:34:17;99903.63;;;13.19;100.00
55916;BME280;41826;53.246;-6.670;2023-07-29T02:36:43;99905.22;;;13.28;100.00
55916;BME280;41826;53.246;-6.670;2023-07-29T02:39:08;99918.03;;;13.46;100.00
55916;BME280;41826;53.246;-6.670;2023-07-29T02:41:33;99930.41;;;13.31;100.00
55916;BME280;41826;53.246;-6.670;2023-07-29T02:43:59;99934.22;;;13.43;100.00
55916;BME280;41826;53.246;-6.670;2023-07-29T02:46:24;99935.53;;;13.24;100.00
55916;BME280;41826;53.246;-6.670;2023-07-29T02:48:50;99921.31;;;13.33;100.00
55916;BME280;41826;53.246;-6.670;2023-07-29T02:51:15;99926.59;;;13.48;100.00
55916;BME280;41826;53.246;-6.670;2023-07-29T02:53:41;99929.78;;;13.43;100.00
55916;BME280;41826;53.246;-6.670;2023-07-29T02:56:06;99928.16;;;13.42;100.00
55916;BME280;41826;53.246;-6.670;2023-07-29T02:58:34;99923.78;;;13.35;100.00
55916;BME280;41826;53.246;-6.670;2023-07-29T03:01:04;99939.31;;;13.59;100.00
55916;BME280;41826;53.246;-6.670;2023-07-29T03:03:31;99947.03;;;13.46;100.00
55916;BME280;41826;53.246;-6.670;2023-07-29T03:06:04;99929.38;;;13.32;100.00
55916;BME280;41826;53.246;-6.670;2023-07-29T03:08:30;99927.50;;;13.02;100.00
55916;BME280;41826;53.246;-6.670;2023-07-29T03:10:56;99920.50;;;12.95;100.00
55916;BME280;41826;53.246;-6.670;2023-07-29T03:13:21;99920.50;;;12.95;100.00
55916;BME280;41826;53.246;-6.670;2023-07-29T03:15:47;99912.31;;;12.90;100.00
55916;BME280;41826;53.246;-6.670;2023-07-29T03:18:12;99907.84;;;12.90;100.00
55916;BME280;41826;53.246;-6.670;2023-07-29T03:20:38;99908.78;;;12.97;100.00
55916;BME280;41826;53.246;-6.670;2023-07-29T03:23:03;99913.47;;;12.87;100.00
55916;BME280;41826;53.246;-6.670;2023-07-29T03:25:28;99906.34;;;12.73;100.00
55916;BME280;41826;53.246;-6.670;2023-07-29T03:27:54;99898.38;;;12.58;100.00
55916;BME280;41826;53.246;-6.670;2023-07-29T03:30:21;99890.84;;;12.55;100.00
55916;BME280;41826;53.246;-6.670;2023-07-29T03:32:46;99889.59;;;12.66;100.00
55916;BME280;41826;53.246;-6.670;2023-07-29T03:35:12;99892.53;;;12.71;100.00
55916;BME280;41826;53.246;-6.670;2023-07-29T03:37:38;99892.31;;;12.57;100.00
55916;BME280;41826;53.246;-6.670;2023-07-29T03:40:04;99893.69;;;12.45;100.00
55916;BME280;41826;53.246;-6.670;2023-07-29T03:42:30;99898.34;;;12.43;100.00
55916;BME280;41826;53.246;-6.670;2023-07-29T03:44:55;99895.22;;;12.63;100.00
55916;BME280;41826;53.246;-6.670;2023-07-29T03:47:21;99905.53;;;12.49;100.00
55916;BME280;41826;53.246;-6.670;2023-07-29T03:49:46;99900.28;;;12.49;100.00
55916;BME280;41826;53.246;-6.670;2023-07-29T03:52:12;99907.13;;;12.58;100.00
55916;BME280;41826;53.246;-6.670;2023-07-29T03:54:37;99896.91;;;12.55;100.00
55916;BME280;41826;53.246;-6.670;2023-07-29T03:57:02;99910.63;;;12.74;100.00
55916;BME280;41826;53.246;-6.670;2023-07-29T03:59:28;99907.75;;;12.61;100.00
55916;BME280;41826;53.246;-6.670;2023-07-29T04:01:54;99918.75;;;12.41;100.00
55916;BME280;41826;53.246;-6.670;2023-07-29T04:04:19;99916.81;;;12.35;100.00
55916;BME280;41826;53.246;-6.670;2023-07-29T04:06:45;99920.25;;;12.35;100.00
55916;BME280;41826;53.246;-6.670;2023-07-29T04:09:11;99908.44;;;12.31;100.00
55916;BME280;41826;53.246;-6.670;2023-07-29T04:11:36;99913.81;;;12.38;100.00
55916;BME280;41826;53.246;-6.670;2023-07-29T04:14:02;99908.22;;;12.41;100.00
55916;BME280;41826;53.246;-6.670;2023-07-29T04:16:27;99902.25;;;12.47;100.00
55916;BME280;41826;53.246;-6.670;2023-07-29T04:18:54;99912.50;;;12.42;100.00
55916;BME280;41826;53.246;-6.670;2023-07-29T04:21:19;99922.28;;;12.25;100.00
55916;BME280;41826;53.246;-6.670;2023-07-29T04:23:45;99922.88;;;12.35;100.00
55916;BME280;41826;53.246;-6.670;2023-07-29T04:26:10;99917.47;;;12.37;100.00
55916;BME280;41826;53.246;-6.670;2023-07-29T04:28:35;99917.81;;;12.34;100.00
55916;BME280;41826;53.246;-6.670;2023-07-29T04:31:01;99924.69;;;12.35;100.00
55916;BME280;41826;53.246;-6.670;2023-07-29T04:33:26;99936.81;;;12.44;100.00
55916;BME280;41826;53.246;-6.670;2023-07-29T04:35:52;99947.00;;;12.47;100.00
55916;BME280;41826;53.246;-6.670;2023-07-29T04:38:17;99960.22;;;12.39;100.00
55916;BME280;41826;53.246;-6.670;2023-07-29T04:40:42;99958.97;;;12.27;100.00
55916;BME280;41826;53.246;-6.670;2023-07-29T04:43:08;99973.34;;;12.47;100.00
55916;BME280;41826;53.246;-6.670;2023-07-29T04:45:33;99977.78;;;12.47;100.00
55916;BME280;41826;53.246;-6.670;2023-07-29T04:47:59;99981.75;;;12.43;100.00
55916;BME280;41826;53.246;-6.670;2023-07-29T04:50:24;99976.41;;;12.59;100.00
55916;BME280;41826;53.246;-6.670;2023-07-29T04:52:50;99992.06;;;12.52;100.00
55916;BME280;41826;53.246;-6.670;2023-07-29T04:55:15;99997.03;;;12.47;100.00
55916;BME280;41826;53.246;-6.670;2023-07-29T04:57:40;99988.81;;;12.42;100.00
55916;BME280;41826;53.246;-6.670;2023-07-29T05:00:06;99985.16;;;12.51;100.00
55916;BME280;41826;53.246;-6.670;2023-07-29T05:02:32;99981.72;;;12.51;100.00
55916;BME280;41826;53.246;-6.670;2023-07-29T05:04:57;99987.56;;;12.61;100.00
55916;BME280;41826;53.246;-6.670;2023-07-29T05:07:23;99987.09;;;12.57;100.00
55916;BME280;41826;53.246;-6.670;2023-07-29T05:09:48;99995.78;;;12.66;100.00
55916;BME280;41826;53.246;-6.670;2023-07-29T05:12:14;99979.13;;;12.66;100.00
55916;BME280;41826;53.246;-6.670;2023-07-29T05:14:39;100001.78;;;12.75;100.00
55916;BME280;41826;53.246;-6.670;2023-07-29T05:17:05;99992.66;;;12.86;100.00
55916;BME280;41826;53.246;-6.670;2023-07-29T05:19:30;99994.53;;;12.77;100.00
55916;BME280;41826;53.246;-6.670;2023-07-29T05:21:56;100003.41;;;12.84;100.00
55916;BME280;41826;53.246;-6.670;2023-07-29T05:24:22;99997.06;;;12.93;100.00
55916;BME280;41826;53.246;-6.670;2023-07-29T05:26:48;99991.50;;;12.88;100.00
55916;BME280;41826;53.246;-6.670;2023-07-29T05:29:14;100002.97;;;12.95;100.00
55916;BME280;41826;53.246;-6.670;2023-07-29T05:31:39;100010.72;;;12.74;100.00
55916;BME280;41826;53.246;-6.670;2023-07-29T05:34:04;99994.78;;;12.90;100.00
55916;BME280;41826;53.246;-6.670;2023-07-29T05:36:30;99984.81;;;12.77;100.00
55916;BME280;41826;53.246;-6.670;2023-07-29T05:38:55;99991.16;;;12.91;100.00
55916;BME280;41826;53.246;-6.670;2023-07-29T05:41:21;99992.13;;;12.90;100.00
55916;BME280;41826;53.246;-6.670;2023-07-29T05:43:46;99991.31;;;12.90;100.00
55916;BME280;41826;53.246;-6.670;2023-07-29T05:46:12;99990.84;;;12.86;100.00
55916;BME280;41826;53.246;-6.670;2023-07-29T05:48:37;99988.75;;;12.82;100.00
55916;BME280;41826;53.246;-6.670;2023-07-29T05:51:02;99979.03;;;13.05;100.00
55916;BME280;41826;53.246;-6.670;2023-07-29T05:53:29;99993.09;;;12.97;100.00
55916;BME280;41826;53.246;-6.670;2023-07-29T05:55:54;99996.06;;;12.94;100.00
55916;BME280;41826;53.246;-6.670;2023-07-29T05:58:20;99993.81;;;12.91;100.00
55916;BME280;41826;53.246;-6.670;2023-07-29T06:00:45;99996.59;;;13.13;100.00
55916;BME280;41826;53.246;-6.670;2023-07-29T06:03:10;100004.53;;;13.51;100.00
55916;BME280;41826;53.246;-6.670;2023-07-29T06:05:36;100013.34;;;13.58;100.00
55916;BME280;41826;53.246;-6.670;2023-07-29T06:08:01;100019.47;;;13.88;100.00
55916;BME280;41826;53.246;-6.670;2023-07-29T06:10:28;100041.69;;;14.08;100.00
55916;BME280;41826;53.246;-6.670;2023-07-29T06:12:53;100040.88;;;14.08;100.00
55916;BME280;41826;53.246;-6.670;2023-07-29T06:15:20;100028.00;;;14.35;100.00
55916;BME280;41826;53.246;-6.670;2023-07-29T06:17:48;100041.00;;;14.51;100.00
55916;BME280;41826;53.246;-6.670;2023-07-29T06:20:14;100046.94;;;14.38;100.00
55916;BME280;41826;53.246;-6.670;2023-07-29T06:22:39;100054.31;;;14.58;100.00
55916;BME280;41826;53.246;-6.670;2023-07-29T06:25:05;100059.31;;;14.67;100.00
55916;BME280;41826;53.246;-6.670;2023-07-29T06:27:30;100062.59;;;14.69;100.00
55916;BME280;41826;53.246;-6.670;2023-07-29T06:29:55;100058.13;;;14.55;100.00
55916;BME280;41826;53.246;-6.670;2023-07-29T06:32:21;100063.50;;;14.62;100.00
55916;BME280;41826;53.246;-6.670;2023-07-29T06:34:46;100057.16;;;14.56;100.00
55916;BME280;41826;53.246;-6.670;2023-07-29T06:37:11;100066.56;;;14.80;100.00
55916;BME280;41826;53.246;-6.670;2023-07-29T06:39:37;100068.53;;;14.93;100.00
55916;BME280;41826;53.246;-6.670;2023-07-29T06:42:02;100056.56;;;15.18;100.00
55916;BME280;41826;53.246;-6.670;2023-07-29T06:44:28;100055.88;;;15.53;100.00
55916;BME280;41826;53.246;-6.670;2023-07-29T06:46:53;100044.09;;;15.34;100.00
55916;BME280;41826;53.246;-6.670;2023-07-29T06:49:19;100037.69;;;15.71;100.00
55916;BME280;41826;53.246;-6.670;2023-07-29T06:51:44;100032.72;;;15.90;100.00
55916;BME280;41826;53.246;-6.670;2023-07-29T06:54:10;99995.03;;;15.81;100.00
55916;BME280;41826;53.246;-6.670;2023-07-29T06:56:35;99999.00;;;15.98;100.00
55916;BME280;41826;53.246;-6.670;2023-07-29T06:59:00;99984.19;;;16.11;100.00
55916;BME280;41826;53.246;-6.670;2023-07-29T07:01:26;99985.16;;;16.03;100.00
55916;BME280;41826;53.246;-6.670;2023-07-29T07:03:51;99980.25;;;16.00;100.00
55916;BME280;41826;53.246;-6.670;2023-07-29T07:06:20;99971.00;;;16.24;100.00
55916;BME280;41826;53.246;-6.670;2023-07-29T07:08:46;99948.84;;;16.58;100.00
55916;BME280;41826;53.246;-6.670;2023-07-29T07:11:11;99939.88;;;16.53;100.00
55916;BME280;41826;53.246;-6.670;2023-07-29T07:13:36;99937.53;;;16.10;100.00
55916;BME280;41826;53.246;-6.670;2023-07-29T07:16:02;99983.03;;;15.85;100.00
55916;BME280;41826;53.246;-6.670;2023-07-29T07:18:27;99989.44;;;15.69;100.00
55916;BME280;41826;53.246;-6.670;2023-07-29T07:20:53;100007.78;;;15.71;100.00
55916;BME280;41826;53.246;-6.670;2023-07-29T07:23:18;100035.97;;;15.35;100.00
55916;BME280;41826;53.246;-6.670;2023-07-29T07:25:44;100048.41;;;15.63;100.00
55916;BME280;41826;53.246;-6.670;2023-07-29T07:28:09;100049.03;;;15.65;100.00
55916;BME280;41826;53.246;-6.670;2023-07-29T07:30:35;100051.00;;;15.56;100.00
55916;BME280;41826;53.246;-6.670;2023-07-29T07:33:00;100054.81;;;15.47;100.00
55916;BME280;41826;53.246;-6.670;2023-07-29T07:35:26;100057.41;;;15.97;100.00
55916;BME280;41826;53.246;-6.670;2023-07-29T07:37:52;100047.31;;;15.79;100.00
55916;BME280;41826;53.246;-6.670;2023-07-29T07:40:17;100049.81;;;16.22;100.00
55916;BME280;41826;53.246;-6.670;2023-07-29T07:42:43;100029.47;;;15.88;100.00
55916;BME280;41826;53.246;-6.670;2023-07-29T07:45:08;100029.56;;;16.49;100.00
55916;BME280;41826;53.246;-6.670;2023-07-29T07:47:33;100001.81;;;16.38;100.00
55916;BME280;41826;53.246;-6.670;2023-07-29T07:49:59;99974.44;;;17.06;100.00
55916;BME280;41826;53.246;-6.670;2023-07-29T07:52:24;99941.19;;;17.03;100.00
55916;BME280;41826;53.246;-6.670;2023-07-29T07:54:53;99912.03;;;16.90;100.00
55916;BME280;41826;53.246;-6.670;2023-07-29T07:57:20;99903.03;;;17.24;100.00
55916;BME280;41826;53.246;-6.670;2023-07-29T07:59:46;99887.97;;;16.92;100.00
55916;BME280;41826;53.246;-6.670;2023-07-29T08:02:11;99892.84;;;16.95;100.00
55916;BME280;41826;53.246;-6.670;2023-07-29T08:04:36;99856.34;;;17.17;100.00
55916;BME280;41826;53.246;-6.670;2023-07-29T08:07:02;99845.38;;;17.58;100.00
55916;BME280;41826;53.246;-6.670;2023-07-29T08:09:27;99815.34;;;16.99;100.00
55916;BME280;41826;53.246;-6.670;2023-07-29T08:11:53;99828.09;;;17.36;100.00
55916;BME280;41826;53.246;-6.670;2023-07-29T08:14:18;99799.50;;;17.44;100.00
55916;BME280;41826;53.246;-6.670;2023-07-29T08:16:43;99790.72;;;17.44;100.00
55916;BME280;41826;53.246;-6.670;2023-07-29T08:19:09;99776.41;;;17.90;100.00
55916;BME280;41826;53.246;-6.670;2023-07-29T08:21:35;99786.72;;;17.21;100.00
55916;BME280;41826;53.246;-6.670;2023-07-29T08:24:00;99791.03;;;17.09;100.00
55916;BME280;41826;53.246;-6.670;2023-07-29T08:26:26;99810.81;;;17.71;100.00
55916;BME280;41826;53.246;-6.670;2023-07-29T08:28:51;99829.63;;;17.05;100.00
55916;BME280;41826;53.246;-6.670;2023-07-29T08:31:16;99857.56;;;16.67;100.00
55916;BME280;41826;53.246;-6.670;2023-07-29T08:33:42;99884.69;;;16.96;100.00
55916;BME280;41826;53.246;-6.670;2023-07-29T08:36:07;99879.38;;;17.03;100.00
55916;BME280;41826;53.246;-6.670;2023-07-29T08:38:33;99842.13;;;17.56;100.00
55916;BME280;41826;53.246;-6.670;2023-07-29T08:41:16;99798.94;;;17.36;100.00
55916;BME280;41826;53.246;-6.670;2023-07-29T08:43:52;99751.09;;;17.49;100.00
55916;BME280;41826;53.246;-6.670;2023-07-29T08:46:21;99721.53;;;17.77;100.00
55916;BME280;41826;53.246;-6.670;2023-07-29T08:48:47;99726.84;;;17.77;100.00
55916;BME280;41826;53.246;-6.670;2023-07-29T08:51:12;99708.75;;;17.67;100.00
55916;BME280;41826;53.246;-6.670;2023-07-29T08:53:39;99720.13;;;17.43;100.00
55916;BME280;41826;53.246;-6.670;2023-07-29T08:56:07;99751.03;;;17.62;100.00
55916;BME280;41826;53.246;-6.670;2023-07-29T08:58:33;99717.63;;;17.86;100.00
55916;BME280;41826;53.246;-6.670;2023-07-29T09:00:59;99694.47;;;17.62;100.00
55916;BME280;41826;53.246;-6.670;2023-07-29T09:03:25;99678.22;;;18.33;100.00
55916;BME280;41826;53.246;-6.670;2023-07-29T09:05:51;99577.91;;;18.47;100.00
55916;BME280;41826;53.246;-6.670;2023-07-29T09:08:16;99563.50;;;18.55;100.00
55916;BME280;41826;53.246;-6.670;2023-07-29T09:10:42;99478.72;;;18.35;100.00
55916;BME280;41826;53.246;-6.670;2023-07-29T09:13:10;99407.75;;;18.54;100.00
55916;BME280;41826;53.246;-6.670;2023-07-29T09:15:36;99344.50;;;18.44;100.00
55916;BME280;41826;53.246;-6.670;2023-07-29T09:18:28;99311.69;;;18.50;100.00
55916;BME280;41826;53.246;-6.670;2023-07-29T09:20:58;99247.78;;;18.45;100.00
55916;BME280;41826;53.246;-6.670;2023-07-29T09:23:24;99206.09;;;18.81;100.00
55916;BME280;41826;53.246;-6.670;2023-07-29T09:25:49;99145.75;;;18.70;100.00
55916;BME280;41826;53.246;-6.670;2023-07-29T09:28:16;99157.31;;;18.75;100.00
55916;BME280;41826;53.246;-6.670;2023-07-29T09:30:44;99116.94;;;18.14;100.00
55916;BME280;41826;53.246;-6.670;2023-07-29T09:33:10;99127.44;;;17.97;100.00
55916;BME280;41826;53.246;-6.670;2023-07-29T09:35:37;99205.91;;;17.82;100.00
55916;BME280;41826;53.246;-6.670;2023-07-29T09:38:04;99216.78;;;17.80;100.00
55916;BME280;41826;53.246;-6.670;2023-07-29T09:40:36;99240.81;;;17.97;100.00
55916;BME280;41826;53.246;-6.670;2023-07-29T09:43:03;99245.38;;;17.29;100.00
55916;BME280;41826;53.246;-6.670;2023-07-29T09:45:29;99257.09;;;18.12;100.00
55916;BME280;41826;53.246;-6.670;2023-07-29T09:47:57;99215.00;;;18.51;100.00
55916;BME280;41826;53.246;-6.670;2023-07-29T09:50:26;99124.97;;;18.43;100.00
55916;BME280;41826;53.246;-6.670;2023-07-29T09:52:53;99126.13;;;18.59;100.00
55916;BME280;41826;53.246;-6.670;2023-07-29T09:55:21;99104.78;;;18.94;100.00
55916;BME280;41826;53.246;-6.670;2023-07-29T09:57:47;99071.34;;;18.06;100.00
55916;BME280;41826;53.246;-6.670;2023-07-29T10:00:13;99081.50;;;18.09;100.00
55916;BME280;41826;53.246;-6.670;2023-07-29T10:02:40;99111.63;;;18.26;100.00
55916;BME280;41826;53.246;-6.670;2023-07-29T10:05:06;99101.53;;;18.40;100.00
55916;BME280;41826;53.246;-6.670;2023-07-29T10:07:34;99076.34;;;18.54;100.00
55916;BME280;41826;53.246;-6.670;2023-07-29T10:10:02;99047.81;;;18.38;100.00
55916;BME280;41826;53.246;-6.670;2023-07-29T10:12:30;99051.63;;;18.54;100.00
55916;BME280;41826;53.246;-6.670;2023-07-29T10:14:59;99058.16;;;18.63;100.00
55916;BME280;41826;53.246;-6.670;2023-07-29T10:17:26;98926.53;;;18.89;100.00
55916;BME280;41826;53.246;-6.670;2023-07-29T10:19:51;98888.06;;;19.14;100.00
55916;BME280;41826;53.246;-6.670;2023-07-29T10:22:20;98712.81;;;19.39;100.00
55916;BME280;41826;53.246;-6.670;2023-07-29T10:24:48;98583.50;;;19.38;100.00
55916;BME280;41826;53.246;-6.670;2023-07-29T10:27:15;98525.00;;;19.76;100.00
55916;BME280;41826;53.246;-6.670;2023-07-29T10:29:43;98441.41;;;19.39;100.00
55916;BME280;41826;53.246;-6.670;2023-07-29T10:32:11;98440.31;;;19.35;100.00
55916;BME280;41826;53.246;-6.670;2023-07-29T10:34:37;98529.38;;;20.02;100.00
55916;BME280;41826;53.246;-6.670;2023-07-29T10:37:04;98487.66;;;20.18;100.00
55916;BME280;41826;53.246;-6.670;2023-07-29T10:39:40;98447.94;;;20.17;100.00
55916;BME280;41826;53.246;-6.670;2023-07-29T10:42:16;98446.16;;;20.48;100.00
55916;BME280;41826;53.246;-6.670;2023-07-29T10:47:13;98487.28;;;20.57;100.00
55916;BME280;41826;53.246;-6.670;2023-07-29T10:49:43;98514.22;;;20.71;100.00
55916;BME280;41826;53.246;-6.670;2023-07-29T10:52:13;98565.63;;;20.03;100.00
55916;BME280;41826;53.246;-6.670;2023-07-29T10:54:47;98663.91;;;19.45;100.00
55916;BME280;41826;53.246;-6.670;2023-07-29T10:57:14;98693.84;;;19.85;100.00
55916;BME280;41826;53.246;-6.670;2023-07-29T10:59:41;98744.09;;;19.54;100.00
55916;BME280;41826;53.246;-6.670;2023-07-29T11:02:17;98773.19;;;19.61;100.00
55916;BME280;41826;53.246;-6.670;2023-07-29T11:04:50;98815.63;;;19.67;100.00
55916;BME280;41826;53.246;-6.670;2023-07-29T11:10:02;98764.16;;;19.84;100.00
55916;BME280;41826;53.246;-6.670;2023-07-29T11:12:51;98734.00;;;19.56;100.00
55916;BME280;41826;53.246;-6.670;2023-07-29T11:15:25;98768.81;;;19.05;100.00
55916;BME280;41826;53.246;-6.670;2023-07-29T11:17:53;98787.38;;;19.44;100.00
55916;BME280;41826;53.246;-6.670;2023-07-29T11:20:21;98798.41;;;19.31;100.00
55916;BME280;41826;53.246;-6.670;2023-07-29T11:22:47;98851.81;;;19.24;100.00
55916;BME280;41826;53.246;-6.670;2023-07-29T11:25:16;98884.09;;;19.33;100.00
55916;BME280;41826;53.246;-6.670;2023-07-29T11:27:43;98914.28;;;18.88;100.00
55916;BME280;41826;53.246;-6.670;2023-07-29T11:30:13;98911.28;;;19.01;100.00
55916;BME280;41826;53.246;-6.670;2023-07-29T11:32:40;98909.28;;;19.25;100.00
55916;BME280;41826;53.246;-6.670;2023-07-29T11:35:08;98819.56;;;20.14;100.00
55916;BME280;41826;53.246;-6.670;2023-07-29T11:37:35;98789.91;;;19.56;100.00
55916;BME280;41826;53.246;-6.670;2023-07-29T11:40:02;98750.31;;;19.60;100.00
55916;BME280;41826;53.246;-6.670;2023-07-29T11:42:31;98736.16;;;19.32;100.00
55916;BME280;41826;53.246;-6.670;2023-07-29T11:44:57;98793.13;;;19.58;100.00
55916;BME280;41826;53.246;-6.670;2023-07-29T11:47:23;98784.41;;;19.63;100.00
55916;BME280;41826;53.246;-6.670;2023-07-29T11:49:48;98789.16;;;19.61;100.00
55916;BME280;41826;53.246;-6.670;2023-07-29T11:52:14;98694.31;;;20.09;100.00
55916;BME280;41826;53.246;-6.670;2023-07-29T11:54:44;98674.50;;;19.40;100.00
55916;BME280;41826;53.246;-6.670;2023-07-29T11:57:09;98642.78;;;19.61;100.00
55916;BME280;41826;53.246;-6.670;2023-07-29T11:59:36;98609.66;;;20.16;100.00
55916;BME280;41826;53.246;-6.670;2023-07-29T12:02:05;98525.94;;;20.07;100.00
55916;BME280;41826;53.246;-6.670;2023-07-29T12:04:33;98553.16;;;20.67;100.00
55916;BME280;41826;53.246;-6.670;2023-07-29T12:07:00;98522.47;;;20.59;100.00
55916;BME280;41826;53.246;-6.670;2023-07-29T12:09:28;98476.91;;;20.81;100.00
55916;BME280;41826;53.246;-6.670;2023-07-29T12:11:55;98451.59;;;21.04;100.00
55916;BME280;41826;53.246;-6.670;2023-07-29T12:14:20;98361.94;;;21.03;100.00
55916;BME280;41826;53.246;-6.670;2023-07-29T12:16:48;98360.09;;;20.98;100.00
55916;BME280;41826;53.246;-6.670;2023-07-29T12:19:15;98306.78;;;20.52;100.00
55916;BME280;41826;53.246;-6.670;2023-07-29T12:21:44;98330.53;;;20.80;100.00
55916;BME280;41826;53.246;-6.670;2023-07-29T12:24:12;98363.50;;;21.30;100.00
55916;BME280;41826;53.246;-6.670;2023-07-29T12:26:41;98298.22;;;21.02;100.00
55916;BME280;41826;53.246;-6.670;2023-07-29T12:31:38;98257.47;;;20.60;100.00
55916;BME280;41826;53.246;-6.670;2023-07-29T12:34:04;98267.03;;;20.87;100.00
55916;BME280;41826;53.246;-6.670;2023-07-29T12:36:49;98322.34;;;21.51;100.00
55916;BME280;41826;53.246;-6.670;2023-07-29T12:39:26;98253.00;;;21.36;100.00
55916;BME280;41826;53.246;-6.670;2023-07-29T12:41:53;98230.47;;;20.97;100.00
55916;BME280;41826;53.246;-6.670;2023-07-29T12:44:20;98326.78;;;21.76;100.00
55916;BME280;41826;53.246;-6.670;2023-07-29T12:46:45;98318.25;;;21.74;100.00
55916;BME280;41826;53.246;-6.670;2023-07-29T12:49:11;98315.41;;;21.55;100.00
55916;BME280;41826;53.246;-6.670;2023-07-29T12:51:37;98341.19;;;21.85;100.00
55916;BME280;41826;53.246;-6.670;2023-07-29T12:54:03;98353.50;;;21.76;100.00